createdAt,value
2023-05-02T00:04:03.977Z,22.30
2023-05-02T00:09:07.459Z,22.40
2023-05-02T00:14:12.331Z,22.40
2023-05-02T00:19:15.812Z,22.30
2023-05-02T00:24:19.294Z,22.40
2023-05-02T00:29:24.183Z,22.40
2023-05-02T00:34:30.959Z,22.40
2023-05-02T00:39:35.895Z,22.40
2023-05-02T00:44:40.764Z,22.30
2023-05-02T00:49:44.198Z,22.40
2023-05-02T00:54:48.932Z,22.40
2023-05-02T00:59:54.033Z,22.40
2023-05-02T01:05:03.918Z,22.30
2023-05-02T01:10:15.633Z,22.30
2023-05-02T01:15:22.654Z,22.40
2023-05-02T01:20:29.157Z,22.40
2023-05-02T01:25:38.972Z,22.30
2023-05-02T01:30:44.854Z,22.30
2023-05-02T01:35:49.009Z,22.30
2023-05-02T01:40:53.626Z,22.30
2023-05-02T01:45:59.080Z,22.30
2023-05-02T01:51:04.134Z,22.30
2023-05-02T01:56:08.150Z,22.30
2023-05-02T02:01:13.425Z,22.30
2023-05-02T02:06:17.665Z,22.30
2023-05-02T02:11:26.564Z,22.30
2023-05-02T02:16:34.352Z,22.20
2023-05-02T02:21:38.793Z,22.30
2023-05-02T02:26:42.679Z,22.20
2023-05-02T02:31:47.511Z,22.30
2023-05-02T02:36:56.502Z,22.30
2023-05-02T02:42:07.457Z,22.20
2023-05-02T02:47:20.177Z,22.20
2023-05-02T02:52:28.894Z,22.20
2023-05-02T02:57:40.914Z,22.20
2023-05-02T03:02:47.603Z,22.20
2023-05-02T03:07:51.350Z,22.20
2023-05-02T03:12:56.039Z,22.30
2023-05-02T03:18:01.142Z,22.20
2023-05-02T03:23:04.718Z,22.20
2023-05-02T03:28:08.242Z,22.20
2023-05-02T03:33:13.132Z,22.20
2023-05-02T03:38:16.704Z,22.30
2023-05-02T03:43:20.194Z,22.20
2023-05-02T03:48:25.172Z,22.20
2023-05-02T03:53:28.585Z,22.20
2023-05-02T03:58:32.104Z,22.20
2023-05-02T04:03:37.156Z,22.30
2023-05-02T04:08:40.695Z,22.20
2023-05-02T04:13:44.176Z,22.20
2023-05-02T04:18:49.093Z,22.20
2023-05-02T04:23:52.592Z,22.20
2023-05-02T04:28:56.086Z,22.20
2023-05-02T04:34:01.085Z,22.20
2023-05-02T04:39:04.980Z,22.10
2023-05-02T04:44:08.403Z,22.20
2023-05-02T04:49:13.319Z,22.20
2023-05-02T04:54:17.273Z,22.10
2023-05-02T04:59:20.807Z,22.20
2023-05-02T05:04:26.190Z,22.10
2023-05-02T05:09:29.631Z,22.20
2023-05-02T05:14:33.055Z,22.20
2023-05-02T05:19:37.931Z,22.20
2023-05-02T05:24:41.386Z,22.20
2023-05-02T05:29:44.802Z,22.20
2023-05-02T05:34:53.271Z,22.10
2023-05-02T05:39:56.729Z,22.10
2023-05-02T05:45:00.242Z,22.10
2023-05-02T05:50:05.636Z,22.20
2023-05-02T05:55:09.928Z,22.10
2023-05-02T06:00:14.471Z,22.10
2023-05-02T06:05:19.342Z,22.10
2023-05-02T06:10:22.812Z,22.10
2023-05-02T06:15:26.274Z,22.10
2023-05-02T06:20:31.216Z,22.10
2023-05-02T06:25:34.948Z,22.10
2023-05-02T06:30:38.442Z,22.10
2023-05-02T06:35:43.340Z,22.10
2023-05-02T06:40:46.884Z,22.10
2023-05-02T06:45:50.358Z,22.20
2023-05-02T06:50:55.484Z,22.10
2023-05-02T06:55:59.076Z,22.20
2023-05-02T07:01:02.584Z,22.00
2023-05-02T07:06:07.646Z,22.10
2023-05-02T07:11:11.309Z,22.10
2023-05-02T07:16:15.119Z,22.20
2023-05-02T07:21:20.520Z,22.10
2023-05-02T07:26:24.538Z,22.10
2023-05-02T07:31:28.136Z,22.10
2023-05-02T07:36:33.098Z,22.20
2023-05-02T07:41:36.668Z,22.10
2023-05-02T07:46:40.224Z,22.20
2023-05-02T07:51:45.980Z,22.10
2023-05-02T07:56:50.029Z,22.20
2023-05-02T08:01:53.462Z,22.20
2023-05-02T08:06:58.428Z,22.20
2023-05-02T08:12:02.884Z,22.20
2023-05-02T08:17:06.375Z,22.20
2023-05-02T08:22:11.427Z,22.20
2023-05-02T08:27:14.946Z,22.20
2023-05-02T08:32:18.454Z,22.20
2023-05-02T08:37:23.277Z,22.20
2023-05-02T08:42:27.739Z,22.20
2023-05-02T08:47:31.582Z,22.30
2023-05-02T08:52:37.374Z,22.20
2023-05-02T08:57:41.686Z,22.30
2023-05-02T09:02:56.622Z,22.20
2023-05-02T09:08:01.776Z,22.20
2023-05-02T09:13:37.864Z,22.20
2023-05-02T09:18:42.953Z,22.20
2023-05-02T09:23:50.303Z,22.20
2023-05-02T09:28:55.187Z,22.20
2023-05-02T09:33:59.170Z,22.30
2023-05-02T09:39:11.437Z,22.20
2023-05-02T09:44:17.248Z,22.20
2023-05-02T09:49:21.363Z,22.20
2023-05-02T09:54:38.139Z,22.20
2023-05-02T09:59:41.975Z,22.30
2023-05-02T10:04:45.665Z,22.20
2023-05-02T10:09:52.294Z,22.20
2023-05-02T10:15:02.070Z,22.20
2023-05-02T10:20:07.132Z,22.30
2023-05-02T10:25:13.587Z,22.20
2023-05-02T10:30:17.650Z,22.30
2023-05-02T10:35:21.827Z,22.20
2023-05-02T10:40:27.285Z,22.20
2023-05-02T10:45:34.653Z,22.20
2023-05-02T10:50:45.194Z,22.30
2023-05-02T10:56:09.841Z,22.30
2023-05-02T11:01:37.173Z,22.30
2023-05-02T11:07:28.200Z,22.20
2023-05-02T11:12:50.888Z,22.20
2023-05-02T11:18:02.428Z,22.30
2023-05-02T11:23:23.000Z,22.30
2023-05-02T11:28:46.102Z,22.30
2023-05-02T11:33:57.830Z,22.30
2023-05-02T11:39:01.584Z,22.20
2023-05-02T11:44:06.710Z,22.30
2023-05-02T11:49:12.099Z,22.20
2023-05-02T11:54:21.574Z,22.20
2023-05-02T11:59:26.891Z,22.30
2023-05-02T12:04:30.603Z,22.30
2023-05-02T12:09:34.093Z,22.30
2023-05-02T12:14:39.342Z,22.30
2023-05-02T12:19:42.995Z,22.20
2023-05-02T12:24:46.819Z,22.30
2023-05-02T12:29:52.251Z,22.30
2023-05-02T12:34:55.835Z,22.30
2023-05-02T12:39:59.715Z,22.30
2023-05-02T12:45:05.002Z,22.30
2023-05-02T12:50:08.735Z,22.30
2023-05-02T12:55:18.734Z,22.30
2023-05-02T13:00:23.677Z,22.20
2023-05-02T13:05:27.292Z,22.30
2023-05-02T13:10:30.738Z,22.30
2023-05-02T13:15:35.598Z,22.30
2023-05-02T13:20:39.135Z,22.30
2023-05-02T13:25:42.660Z,22.40
2023-05-02T13:30:47.547Z,22.40
2023-05-02T13:35:51.173Z,22.30
2023-05-02T13:40:55.239Z,22.30
2023-05-02T13:46:00.484Z,22.40
2023-05-02T13:51:03.998Z,22.30
2023-05-02T13:56:07.941Z,22.30
2023-05-02T14:01:12.834Z,22.30
2023-05-02T14:06:16.731Z,22.30
2023-05-02T14:11:20.400Z,22.30
2023-05-02T14:16:25.285Z,22.30
2023-05-02T14:21:28.731Z,22.40
2023-05-02T14:26:32.242Z,22.30
2023-05-02T14:31:37.205Z,22.40
2023-05-02T14:36:40.786Z,22.40
2023-05-02T14:41:44.227Z,22.40
2023-05-02T14:46:49.197Z,22.40
2023-05-02T14:51:53.215Z,22.30
2023-05-02T14:56:57.156Z,22.40
2023-05-02T15:02:02.105Z,22.40
2023-05-02T15:07:05.970Z,22.50
2023-05-02T15:12:09.580Z,22.40
2023-05-02T15:17:14.360Z,22.30
2023-05-02T15:22:18.477Z,22.40
2023-05-02T15:27:21.957Z,22.40
2023-05-02T15:32:27.023Z,22.40
2023-05-02T15:37:30.447Z,22.40
2023-05-02T15:42:37.270Z,22.40
2023-05-02T15:47:42.257Z,22.40
2023-05-02T15:52:46.069Z,22.50
2023-05-02T15:57:51.955Z,22.40
2023-05-02T16:02:56.883Z,22.50
2023-05-02T16:08:00.393Z,22.40
2023-05-02T16:13:03.878Z,22.50
2023-05-02T16:18:08.828Z,22.40
2023-05-02T16:23:12.537Z,22.40
2023-05-02T16:28:16.061Z,22.50
2023-05-02T16:33:21.813Z,22.40
2023-05-02T16:38:25.377Z,22.50
2023-05-02T16:43:28.835Z,22.40
2023-05-02T16:48:34.459Z,22.40
2023-05-02T16:53:38.044Z,22.50
2023-05-02T16:58:41.545Z,22.40
2023-05-02T17:03:46.883Z,22.40
2023-05-02T17:08:50.766Z,22.50
2023-05-02T17:13:54.205Z,22.50
2023-05-02T17:18:59.128Z,22.50
2023-05-02T17:24:02.773Z,22.50
2023-05-02T17:29:06.260Z,22.50
2023-05-02T17:34:11.165Z,22.50
2023-05-02T17:39:16.098Z,22.50
2023-05-02T17:44:19.592Z,22.50
2023-05-02T17:49:24.472Z,22.50
2023-05-02T17:54:27.918Z,22.50
2023-05-02T17:59:31.711Z,22.60
2023-05-02T18:04:36.594Z,22.50
2023-05-02T18:09:40.048Z,22.50
2023-05-02T18:14:43.634Z,22.50
2023-05-02T18:19:50.287Z,22.50
2023-05-02T18:24:54.557Z,22.50
2023-05-02T18:29:58.882Z,22.50
2023-05-02T18:35:04.454Z,22.60
2023-05-02T18:40:09.790Z,22.50
2023-05-02T18:45:13.221Z,22.50
2023-05-02T18:50:18.333Z,22.50
2023-05-02T18:55:24.956Z,22.60
2023-05-02T19:00:31.593Z,22.50
2023-05-02T19:05:36.622Z,22.50
2023-05-02T19:10:40.137Z,22.50
2023-05-02T19:15:43.611Z,22.50
2023-05-02T19:20:48.445Z,22.50
2023-05-02T19:25:52.806Z,22.50
2023-05-02T19:30:56.321Z,22.60
2023-05-02T19:36:01.221Z,22.60
2023-05-02T19:41:04.705Z,22.60
2023-05-02T19:46:08.239Z,22.50
2023-05-02T19:51:13.328Z,22.60
2023-05-02T19:56:16.815Z,22.60
2023-05-02T20:01:20.396Z,22.60
2023-05-02T20:06:25.746Z,22.60
2023-05-02T20:11:30.955Z,22.60
2023-05-02T20:16:34.520Z,22.60
2023-05-02T20:21:40.307Z,22.50
2023-05-02T20:26:43.718Z,22.60
2023-05-02T20:31:47.202Z,22.60
2023-05-02T20:36:52.974Z,22.60
2023-05-02T20:41:58.525Z,22.60
2023-05-02T20:47:02.248Z,22.60
2023-05-02T20:52:07.686Z,22.60
2023-05-02T20:57:11.207Z,22.60
2023-05-02T21:02:14.818Z,22.70
2023-05-02T21:07:19.722Z,22.70
2023-05-02T21:12:23.201Z,22.60
2023-05-02T21:17:27.042Z,22.60
2023-05-02T21:22:32.010Z,22.70
2023-05-02T21:27:35.629Z,22.70
2023-05-02T21:32:39.105Z,22.70
2023-05-02T21:37:45.447Z,22.60
2023-05-02T21:42:49.010Z,22.70
2023-05-02T21:47:52.994Z,22.60
2023-05-02T21:52:57.989Z,22.70
2023-05-02T21:58:01.722Z,22.70
2023-05-02T22:03:08.007Z,22.60
2023-05-02T22:08:14.311Z,22.60
2023-05-02T22:13:18.435Z,22.60
2023-05-02T22:18:22.017Z,22.70
2023-05-02T22:23:27.111Z,22.70
2023-05-02T22:28:30.637Z,22.70
2023-05-02T22:33:34.127Z,22.70
2023-05-02T22:38:39.959Z,22.60
2023-05-02T22:43:43.410Z,22.60
2023-05-02T22:48:46.903Z,22.60
2023-05-02T22:53:51.707Z,22.70
2023-05-02T22:58:55.180Z,22.70
2023-05-02T23:03:58.690Z,22.70
2023-05-02T23:09:03.594Z,22.70
2023-05-02T23:14:07.090Z,22.70
2023-05-02T23:19:10.493Z,22.70
2023-05-02T23:24:15.464Z,22.70
2023-05-02T23:29:19.057Z,22.70
2023-05-02T23:34:22.638Z,22.70
2023-05-02T23:39:27.606Z,22.80
2023-05-02T23:44:31.492Z,22.70
2023-05-02T23:49:35.072Z,22.70
2023-05-02T23:54:39.904Z,22.70
2023-05-02T23:59:43.364Z,22.70
